Time;durP1;ratioP1;P1;durP2;ratioP2;P2;SDS_P1;SDS_P2;PMS_P1;PMS_P2;Temp;Humidity;BMP_temperature;BMP_pressure;BME280_temperature;BME280_humidity;BME280_pressure;Samples;Min_cycle;Max_cycle;Signal;HPM_P1;HPM_P2
2023/09/14 00:00:33;;;;;;;7.60;3.92;;;;;;;18.27;52.65;94957.22;5054059;28;20025;-80
2023/09/14 00:02:59;;;;;;;6.90;3.78;;;;;;;18.24;52.87;94962.81;5053987;28;20029;-79
2023/09/14 00:05:24;;;;;;;8.77;4.22;;;;;;;18.28;52.83;94974.66;5054430;28;20082;-79
2023/09/14 00:07:50;;;;;;;5.57;3.40;;;;;;;18.21;52.74;94965.78;5070747;28;20457;-79
2023/09/14 00:10:15;;;;;;;7.35;3.70;;;;;;;18.03;52.67;94933.66;5070627;28;20025;-79
2023/09/14 00:12:41;;;;;;;6.25;3.88;;;;;;;18.12;53.08;94960.75;5072216;28;20032;-80
2023/09/14 00:15:06;;;;;;;6.80;3.75;;;;;;;18.20;52.84;94955.44;5070594;28;20056;-79
2023/09/14 00:17:32;;;;;;;7.15;3.90;;;;;;;18.08;53.02;94958.44;5054183;28;20414;-79
2023/09/14 00:19:59;;;;;;;6.10;3.60;;;;;;;18.22;52.63;94963.97;5053784;28;20032;-79
2023/09/14 00:22:25;;;;;;;5.45;3.85;;;;;;;18.23;52.59;94966.44;5070805;28;20580;-79
2023/09/14 00:24:50;;;;;;;7.25;3.70;;;;;;;18.16;52.81;94965.47;5037404;28;20032;-79
2023/09/14 00:27:16;;;;;;;8.15;4.03;;;;;;;18.11;53.21;94957.28;5053986;28;20021;-79
2023/09/14 00:29:41;;;;;;;4.80;3.38;;;;;;;18.10;53.49;94958.28;5054107;28;20067;-79
2023/09/14 00:32:06;;;;;;;7.45;4.10;;;;;;;17.93;53.83;94949.63;5070462;28;20517;-79
2023/09/14 00:34:32;;;;;;;5.95;3.92;;;;;;;18.00;53.73;94955.03;5037269;28;20028;-80
2023/09/14 00:36:57;;;;;;;5.90;3.50;;;;;;;17.93;54.19;94949.63;5070119;28;20506;-79
2023/09/14 00:39:23;;;;;;;5.70;3.75;;;;;;;17.79;54.42;94948.50;5070226;28;20043;-79
2023/09/14 00:41:48;;;;;;;9.05;4.18;;;;;;;17.87;54.66;94955.56;5053451;28;20025;-78
2023/09/14 00:44:14;;;;;;;8.27;3.90;;;;;;;17.58;54.99;94924.56;5070059;28;20036;-79
2023/09/14 00:46:39;;;;;;;6.03;4.10;;;;;;;17.72;55.17;94957.19;5053942;28;20055;-79
2023/09/14 00:49:04;;;;;;;6.07;4.20;;;;;;;17.72;55.43;94947.53;5069787;28;20040;-78
2023/09/14 00:51:30;;;;;;;7.45;3.95;;;;;;;17.65;55.78;94957.03;5053339;28;20028;-79
2023/09/14 00:53:56;;;;;;;5.25;3.92;;;;;;;17.61;56.08;94964.44;5053605;28;20051;-79
2023/09/14 00:56:21;;;;;;;6.18;3.92;;;;;;;17.43;56.50;94948.84;5053342;28;20032;-79
2023/09/14 00:58:47;;;;;;;6.93;4.05;;;;;;;17.51;56.61;94973.47;5036594;28;20434;-80
2023/09/14 01:01:14;;;;;;;8.57;4.20;;;;;;;17.41;56.97;94966.59;5053409;28;20075;-79
2023/09/14 01:03:40;;;;;;;9.05;4.40;;;;;;;17.27;57.23;94953.28;5037747;28;20055;-78
2023/09/14 01:06:06;;;;;;;5.53;4.30;;;;;;;17.22;57.50;94960.84;5053399;28;20536;-78
2023/09/14 01:08:31;;;;;;;6.45;4.43;;;;;;;17.27;57.73;94966.44;5053028;28;20029;-78
2023/09/14 01:10:57;;;;;;;6.65;4.30;;;;;;;17.24;57.65;94969.38;5053316;28;20399;-79
2023/09/14 01:13:29;;;;;;;6.03;4.10;;;;;;;17.10;57.95;94965.59;5036959;28;20481;-78
2023/09/14 01:16:01;;;;;;;7.72;4.07;;;;;;;17.11;58.19;94967.25;5053334;28;20036;-78
2023/09/14 01:18:30;;;;;;;6.55;4.40;;;;;;;17.13;57.97;94966.13;5053305;28;20486;-79
2023/09/14 01:20:58;;;;;;;6.40;4.30;;;;;;;17.09;57.84;94956.91;5052761;28;20029;-79
2023/09/14 01:23:34;;;;;;;5.43;4.30;;;;;;;16.95;58.17;94954.94;5069845;28;20043;-79
2023/09/14 01:26:01;;;;;;;5.85;4.10;;;;;;;16.98;58.26;94960.69;5069654;28;20111;-79
2023/09/14 01:28:27;;;;;;;6.40;3.92;;;;;;;16.93;58.31;94959.53;5036565;28;20025;-78
2023/09/14 01:30:52;;;;;;;6.68;3.67;;;;;;;16.81;58.46;94943.28;5069496;28;20032;-78
2023/09/14 01:33:20;;;;;;;7.82;3.90;;;;;;;16.95;58.24;94950.50;5033005;28;20033;-79
2023/09/14 01:36:00;;;;;;;6.38;4.10;;;;;;;16.79;58.60;94950.47;5033367;28;20036;-77
2023/09/14 01:38:27;;;;;;;5.63;3.80;;;;;;;16.68;58.73;94950.75;5035515;28;20037;-78
2023/09/14 01:40:52;;;;;;;7.00;3.92;;;;;;;16.61;58.81;94949.78;5053337;28;20043;-78
2023/09/14 01:43:18;;;;;;;6.07;3.85;;;;;;;16.61;58.89;94952.41;5036616;28;20021;-78
2023/09/14 01:45:43;;;;;;;5.65;3.72;;;;;;;16.61;58.99;94966.34;5036827;28;20032;-78
2023/09/14 01:48:14;;;;;;;5.43;4.18;;;;;;;16.61;58.87;94955.03;5037155;28;20057;-78
2023/09/14 01:50:39;;;;;;;6.05;4.10;;;;;;;16.62;58.85;94954.84;5053436;28;20530;-78
2023/09/14 01:53:05;;;;;;;5.95;3.88;;;;;;;16.65;58.69;94964.19;5036810;28;20037;-78
2023/09/14 01:55:30;;;;;;;6.80;3.95;;;;;;;16.61;58.85;94966.34;5036655;28;20096;-78
2023/09/14 01:57:56;;;;;;;5.80;4.07;;;;;;;16.67;58.51;94968.31;5036676;28;20040;-78
2023/09/14 02:00:21;;;;;;;8.18;5.18;;;;;;;16.72;58.50;94970.47;5053093;28;20467;-78
2023/09/14 02:02:46;;;;;;;5.90;4.10;;;;;;;16.58;58.44;94953.53;5052838;28;20025;-79
2023/09/14 02:05:12;;;;;;;6.07;4.32;;;;;;;16.54;58.68;94958.25;5019713;28;20515;-78
2023/09/14 02:07:37;;;;;;;8.55;4.10;;;;;;;16.53;58.52;94959.25;5052994;28;20480;-79
2023/09/14 02:10:03;;;;;;;6.38;3.90;;;;;;;16.65;58.31;94953.72;5036472;28;20037;-79
2023/09/14 02:12:28;;;;;;;5.90;3.88;;;;;;;16.68;58.28;94962.06;5036390;28;20075;-78
2023/09/14 02:14:54;;;;;;;7.32;3.90;;;;;;;16.43;58.02;94927.09;5035841;28;20045;-78
2023/09/14 02:17:19;;;;;;;4.95;3.83;;;;;;;16.52;58.64;94962.06;5036199;28;20032;-78
2023/09/14 02:19:44;;;;;;;6.40;4.07;;;;;;;16.63;58.34;94958.28;5053769;28;20048;-79
2023/09/14 02:22:10;;;;;;;6.45;4.05;;;;;;;16.50;58.72;94962.19;5052000;28;20013;-78
2023/09/14 02:24:35;;;;;;;6.07;3.55;;;;;;;16.50;58.54;94951.72;5052634;28;20503;-78
2023/09/14 02:27:01;;;;;;;4.97;4.05;;;;;;;16.52;58.57;94969.91;5052763;28;20029;-78
2023/09/14 02:29:26;;;;;;;7.10;3.80;;;;;;;16.51;58.65;94970.88;5035903;28;20033;-78
2023/09/14 02:31:52;;;;;;;6.53;3.88;;;;;;;16.58;58.28;94969.28;5060696;28;20027;-78
2023/09/14 02:34:17;;;;;;;8.75;4.10;;;;;;;16.36;58.57;94965.44;5071393;28;20032;-78
2023/09/14 02:36:42;;;;;;;6.38;3.90;;;;;;;16.58;58.47;94973.72;5074103;28;20025;-78
2023/09/14 02:39:08;;;;;;;5.72;4.20;;;;;;;16.52;58.60;94981.22;5038970;28;20502;-78
2023/09/14 02:41:33;;;;;;;9.05;4.00;;;;;;;16.46;58.77;94976.59;5039309;28;20051;-78
2023/09/14 02:43:59;;;;;;;4.97;3.85;;;;;;;16.70;58.31;94975.84;5072300;28;20036;-78
2023/09/14 02:46:24;;;;;;;8.40;4.00;;;;;;;16.65;57.90;94975.50;5072365;28;20055;-78
2023/09/14 02:48:50;;;;;;;6.18;4.30;;;;;;;16.66;58.15;94971.91;5055235;28;20510;-78
2023/09/14 02:51:16;;;;;;;8.68;4.10;;;;;;;16.37;58.65;94959.19;5054844;28;20056;-78
2023/09/14 02:53:41;;;;;;;5.68;3.90;;;;;;;16.44;58.34;94962.84;5072138;28;20098;-78
2023/09/14 02:56:09;;;;;;;9.25;4.22;;;;;;;16.48;58.44;94953.66;5071946;28;20028;-78
2023/09/14 02:58:35;;;;;;;9.10;3.60;;;;;;;16.43;58.52;94958.56;5039115;28;20421;-78
2023/09/14 03:01:11;;;;;;;5.10;3.78;;;;;;;16.42;58.61;94956.94;5055039;28;20024;-78
2023/09/14 03:03:39;;;;;;;8.40;4.20;;;;;;;16.44;58.56;94957.59;5039581;28;20111;-78
2023/09/14 03:06:05;;;;;;;5.38;3.75;;;;;;;16.48;58.58;94956.28;5070841;28;20039;-79
2023/09/14 03:08:31;;;;;;;6.38;4.13;;;;;;;16.46;58.57;94960.03;5054839;28;20032;-78
2023/09/14 03:10:57;;;;;;;6.18;3.92;;;;;;;16.46;58.50;94953.00;5055041;28;20501;-78
2023/09/14 03:13:22;;;;;;;6.68;3.90;;;;;;;16.40;58.66;94953.63;5038437;28;20081;-77
2023/09/14 03:15:55;;;;;;;4.53;3.90;;;;;;;16.29;58.93;94946.06;5072829;28;20398;-78
2023/09/14 03:18:20;;;;;;;7.75;4.60;;;;;;;16.24;59.25;94959.66;5038351;28;20033;-78
2023/09/14 03:20:46;;;;;;;7.65;4.15;;;;;;;16.16;59.41;94953.53;5071469;28;20498;-77
2023/09/14 03:23:11;;;;;;;5.80;4.07;;;;;;;16.28;59.46;94973.28;5054909;28;20060;-77
2023/09/14 03:25:36;;;;;;;7.50;3.92;;;;;;;16.31;59.29;94972.94;5055014;28;20414;-78
2023/09/14 03:28:02;;;;;;;5.85;4.20;;;;;;;16.29;58.56;94959.19;5055141;28;20040;-78
2023/09/14 03:30:28;;;;;;;5.30;3.97;;;;;;;16.20;58.99;94970.63;5054557;28;20093;-78
2023/09/14 03:32:53;;;;;;;8.05;3.95;;;;;;;16.40;58.36;94974.63;5051544;28;20032;-79
2023/09/14 03:35:19;;;;;;;5.30;4.07;;;;;;;16.41;58.29;94971.03;5067990;28;20024;-78
2023/09/14 03:37:44;;;;;;;6.88;3.70;;;;;;;16.30;58.68;94960.84;5068088;28;20086;-78
2023/09/14 03:40:10;;;;;;;7.28;3.90;;;;;;;16.35;58.46;94960.34;5034501;28;20431;-78
2023/09/14 03:42:35;;;;;;;7.20;3.50;;;;;;;16.37;58.30;94971.50;5051393;28;20403;-78
2023/09/14 03:45:01;;;;;;;6.20;4.03;;;;;;;16.28;58.12;94937.38;5034412;28;20303;-78
2023/09/14 03:47:27;;;;;;;6.93;3.92;;;;;;;16.21;59.14;94964.38;5051267;28;20033;-78
2023/09/14 03:49:52;;;;;;;5.53;3.78;;;;;;;16.18;58.92;94957.66;5049700;28;20049;-78
2023/09/14 03:52:18;;;;;;;7.93;4.03;;;;;;;16.41;58.69;94973.66;5057846;28;20040;-78
2023/09/14 03:54:43;;;;;;;7.82;4.28;;;;;;;16.33;58.68;94981.50;5070998;28;20024;-78
2023/09/14 03:57:14;;;;;;;4.93;3.90;;;;;;;16.36;58.46;94978.53;5070881;28;20507;-78
2023/09/14 03:59:43;;;;;;;;;;;;;;;16.35;58.75;94982.13;5067728;28;20033;-78
2023/09/14 04:02:09;;;;;;;6.78;3.80;;;;;;;16.48;58.35;94986.94;5050844;28;19923;-78
2023/09/14 04:04:34;;;;;;;4.90;3.65;;;;;;;16.37;58.51;94982.78;5034364;28;20067;-78
2023/09/14 04:07:00;;;;;;;5.80;3.70;;;;;;;16.41;58.01;94989.38;5051120;28;20037;-78
2023/09/14 04:09:29;;;;;;;4.93;3.75;;;;;;;16.50;57.83;94987.59;5050554;28;20029;-77
2023/09/14 04:11:55;;;;;;;6.70;4.07;;;;;;;16.50;57.79;94988.41;5051011;28;20048;-78
2023/09/14 04:14:20;;;;;;;5.65;3.58;;;;;;;16.50;57.93;94982.38;5051966;28;20407;-77
2023/09/14 04:16:47;;;;;;;6.38;3.90;;;;;;;16.28;58.21;94968.03;5034156;28;20032;-77
2023/09/14 04:19:13;;;;;;;6.20;4.53;;;;;;;16.37;58.41;94987.22;5050409;28;20035;-78
2023/09/14 04:21:40;;;;;;;8.13;3.80;;;;;;;16.39;58.97;94991.34;5067330;28;20509;-78
2023/09/14 04:24:06;;;;;;;5.22;3.72;;;;;;;16.37;58.86;94987.22;5050491;28;20033;-78
2023/09/14 04:26:31;;;;;;;8.10;4.55;;;;;;;16.27;58.96;94995.22;5033950;28;20059;-78
2023/09/14 04:28:59;;;;;;;6.03;3.60;;;;;;;16.12;59.21;94988.91;5033759;28;20513;-78
2023/09/14 04:31:27;;;;;;;6.85;3.88;;;;;;;16.25;59.55;94999.81;5056063;28;20134;-78
2023/09/14 04:33:53;;;;;;;6.30;3.88;;;;;;;16.31;58.69;94999.16;5054016;28;20436;-78
2023/09/14 04:36:18;;;;;;;7.35;4.00;;;;;;;16.24;59.10;94992.91;5055418;28;20040;-78
2023/09/14 04:38:44;;;;;;;6.70;3.80;;;;;;;16.27;59.33;95003.09;5033606;28;20041;-78
2023/09/14 04:41:09;;;;;;;6.38;4.07;;;;;;;16.33;59.01;94993.78;5033796;28;20465;-78
2023/09/14 04:43:35;;;;;;;7.18;3.80;;;;;;;16.24;59.46;95013.88;5033522;28;20039;-78
2023/09/14 04:46:00;;;;;;;6.70;3.92;;;;;;;16.35;59.50;95015.38;5063046;28;20028;-77
2023/09/14 04:48:26;;;;;;;6.70;4.10;;;;;;;16.28;59.71;95015.22;5049930;28;20518;-77
2023/09/14 04:50:54;;;;;;;10.43;4.45;;;;;;;16.17;60.11;95011.06;5050082;28;20059;-78
2023/09/14 04:53:20;;;;;;;8.27;3.78;;;;;;;16.20;59.13;95015.16;5051391;28;20649;-78
2023/09/14 04:55:46;;;;;;;5.68;3.83;;;;;;;16.23;59.12;95007.00;5017115;28;20115;-77
2023/09/14 04:58:11;;;;;;;6.63;4.13;;;;;;;16.33;59.72;95004.25;5051427;28;20059;-77
2023/09/14 05:00:37;;;;;;;5.03;3.70;;;;;;;16.42;58.95;95001.50;5040821;28;20095;-78
2023/09/14 05:03:04;;;;;;;4.97;3.80;;;;;;;16.39;58.61;94998.38;5050020;28;20047;-78
2023/09/14 05:05:31;;;;;;;10.65;4.20;;;;;;;16.64;58.08;95001.91;5065827;28;20100;-75
2023/09/14 05:07:57;;;;;;;6.80;4.00;;;;;;;16.79;57.76;94994.25;5070797;28;20487;-79
2023/09/14 05:10:22;;;;;;;5.53;3.72;;;;;;;17.24;56.87;94993.81;5067423;28;20039;-78
2023/09/14 05:12:48;;;;;;;4.40;3.53;;;;;;;17.71;55.18;95008.91;5063974;28;20445;-78
2023/09/14 05:15:13;;;;;;;4.63;3.42;;;;;;;18.41;53.10;95002.19;5033774;28;20040;-78
2023/09/14 05:17:39;;;;;;;5.93;3.45;;;;;;;18.96;51.92;95019.72;5063427;28;20052;-79
2023/09/14 05:20:08;;;;;;;6.43;3.92;;;;;;;19.32;51.13;95003.34;5069188;28;20403;-78
2023/09/14 05:22:34;;;;;;;7.10;3.80;;;;;;;19.51;50.51;95010.78;5064978;28;20266;-79
2023/09/14 05:24:59;;;;;;;6.95;3.70;;;;;;;19.37;50.48;95012.38;5016247;28;20511;-79
2023/09/14 05:27:25;;;;;;;5.70;3.42;;;;;;;19.39;50.24;94999.03;5062629;28;20612;-80
2023/09/14 05:29:50;;;;;;;7.72;3.95;;;;;;;19.46;50.34;95013.13;5058202;28;20028;-79
2023/09/14 05:32:16;;;;;;;6.68;4.00;;;;;;;19.46;50.07;95005.22;5035293;28;20044;-79
2023/09/14 05:34:42;;;;;;;10.77;3.75;;;;;;;19.36;50.52;95004.63;5035938;28;20492;-79
2023/09/14 05:37:07;;;;;;;7.63;4.00;;;;;;;19.35;50.66;95000.38;5030462;28;20479;-79
2023/09/14 05:39:33;;;;;;;7.30;3.88;;;;;;;19.37;50.90;95003.66;5050651;28;20526;-80
2023/09/14 05:41:58;;;;;;;9.60;4.00;;;;;;;19.18;51.08;95005.75;5048051;28;20025;-80
2023/09/14 05:44:23;;;;;;;10.45;4.35;;;;;;;19.20;51.03;95005.59;5048791;28;20037;-80
2023/09/14 05:46:49;;;;;;;9.50;4.20;;;;;;;19.18;51.47;95002.31;5053361;28;20037;-79
2023/09/14 05:49:14;;;;;;;10.18;4.72;;;;;;;19.12;50.63;94990.66;5036435;28;20029;-79
2023/09/14 05:51:40;;;;;;;10.75;4.43;;;;;;;19.31;50.25;94994.66;5046575;28;20065;-79
2023/09/14 05:54:05;;;;;;;10.80;4.75;;;;;;;19.36;51.26;95007.25;5036882;28;20025;-80
2023/09/14 05:56:32;;;;;;;7.75;4.95;;;;;;;19.60;50.80;94996.53;5013225;28;20025;-79
2023/09/14 05:58:57;;;;;;;9.80;4.22;;;;;;;20.00;49.54;95007.75;5036675;28;20044;-79
2023/09/14 06:01:23;;;;;;;10.38;4.30;;;;;;;20.09;49.20;95008.47;5053795;28;20033;-80
2023/09/14 06:03:48;;;;;;;11.65;4.68;;;;;;;20.22;48.97;95016.56;5024823;28;20502;-80
2023/09/14 06:06:14;;;;;;;11.00;4.70;;;;;;;20.23;48.83;95012.94;5057197;28;20033;-79
2023/09/14 06:08:40;;;;;;;9.05;3.97;;;;;;;19.95;49.36;94983.72;5035833;28;20021;-80
2023/09/14 06:11:05;;;;;;;16.58;4.72;;;;;;;19.91;49.88;95011.44;5023620;28;20032;-79
2023/09/14 06:13:31;;;;;;;12.25;4.35;;;;;;;20.02;50.24;95018.91;5062624;28;20032;-80
2023/09/14 06:15:56;;;;;;;8.50;4.43;;;;;;;20.28;50.21;95007.94;5040104;28;20102;-80
2023/09/14 06:18:22;;;;;;;8.75;4.10;;;;;;;20.60;48.45;95005.13;5048111;28;20484;-80
2023/09/14 06:20:47;;;;;;;9.90;4.40;;;;;;;20.64;48.56;95004.53;5049017;28;20029;-78
2023/09/14 06:23:12;;;;;;;10.02;4.18;;;;;;;20.53;48.78;94989.19;5051614;28;20025;-80
2023/09/14 06:25:38;;;;;;;8.35;4.53;;;;;;;20.64;49.12;95003.72;5072210;28;20487;-74
2023/09/14 06:28:04;;;;;;;10.15;4.63;;;;;;;20.48;49.88;95007.38;5055087;28;20097;-77
2023/09/14 06:30:29;;;;;;;7.10;3.83;;;;;;;20.57;49.50;94997.56;5061347;28;20025;-78
2023/09/14 06:32:55;;;;;;;15.10;5.85;;;;;;;20.87;49.17;95014.19;5052408;28;20033;-78
2023/09/14 06:35:20;;;;;;;10.73;4.85;;;;;;;20.86;49.04;95002.78;5067917;28;20547;-82
2023/09/14 06:37:46;;;;;;;13.43;4.93;;;;;;;20.89;48.97;95010.31;5038662;28;20064;-81
2023/09/14 06:40:12;;;;;;;10.57;4.65;;;;;;;20.83;48.99;95005.78;5070594;28;20028;-80
2023/09/14 06:42:37;;;;;;;19.88;5.43;;;;;;;20.98;48.37;95011.06;5055551;28;20047;-82
2023/09/14 06:45:03;;;;;;;11.20;5.07;;;;;;;20.71;49.27;95021.28;5053171;28;20518;-83
2023/09/14 06:47:28;;;;;;;12.77;5.25;;;;;;;20.85;49.12;95032.03;5046962;28;20433;-83
2023/09/14 06:49:54;;;;;;;11.35;4.93;;;;;;;20.59;48.89;95014.03;5053285;28;20068;-81
2023/09/14 06:52:19;;;;;;;12.10;5.40;;;;;;;20.58;49.14;95026.41;5069251;28;20402;-79
2023/09/14 06:54:46;;;;;;;13.43;5.75;;;;;;;20.96;48.63;95024.44;5052062;28;20047;-82
2023/09/14 06:57:11;;;;;;;16.40;6.32;;;;;;;21.01;48.02;95033.63;5066545;28;20038;-79
2023/09/14 06:59:37;;;;;;;14.32;5.32;;;;;;;21.18;47.62;95032.41;5070464;28;20111;-82
2023/09/14 07:02:02;;;;;;;11.98;4.50;;;;;;;20.93;47.72;95026.63;5029127;28;20484;-82
2023/09/14 07:04:28;;;;;;;9.13;4.03;;;;;;;21.14;47.72;95033.75;5035442;28;20111;-82
2023/09/14 07:06:54;;;;;;;10.45;4.50;;;;;;;21.26;47.54;95040.19;5035037;28;20451;-82
2023/09/14 07:09:21;;;;;;;13.77;4.70;;;;;;;21.10;47.81;95021.94;5055371;28;20064;-82
2023/09/14 07:11:46;;;;;;;9.38;4.32;;;;;;;21.25;47.23;95019.25;5055112;28;20103;-81
2023/09/14 07:14:12;;;;;;;9.40;4.28;;;;;;;21.37;47.03;95034.47;5037212;28;20051;-82
2023/09/14 07:16:37;;;;;;;10.35;4.20;;;;;;;21.41;47.47;95038.34;5054234;28;20021;-82
2023/09/14 07:19:03;;;;;;;8.30;4.40;;;;;;;21.09;47.89;95002.66;5070321;28;20039;-82
2023/09/14 07:21:32;;;;;;;12.35;4.80;;;;;;;21.34;47.88;95026.88;5071709;28;20036;-82
2023/09/14 07:23:59;;;;;;;8.82;4.22;;;;;;;21.74;47.61;95043.13;5055697;28;20040;-82
2023/09/14 07:26:25;;;;;;;9.77;4.50;;;;;;;21.48;46.75;95035.78;5054409;28;20479;-83
2023/09/14 07:28:50;;;;;;;11.57;4.30;;;;;;;21.85;46.75;95039.97;5047900;28;20039;-80
2023/09/14 07:31:16;;;;;;;10.23;4.88;;;;;;;21.83;46.38;95035.88;5037976;28;20028;-80
2023/09/14 07:33:44;;;;;;;13.32;4.97;;;;;;;22.05;46.13;95041.94;5071483;28;20024;-83
2023/09/14 07:36:09;;;;;;;9.80;4.80;;;;;;;22.08;46.18;95036.25;5033681;28;20512;-82
2023/09/14 07:38:35;;;;;;;11.88;4.93;;;;;;;21.86;46.23;95017.78;5067980;28;20036;-82
2023/09/14 07:41:00;;;;;;;6.22;3.90;;;;;;;21.99;46.32;95040.06;5053665;28;20029;-83
2023/09/14 07:43:26;;;;;;;10.57;4.07;;;;;;;22.13;45.87;95035.69;5054149;28;20502;-82
2023/09/14 07:45:53;;;;;;;8.52;4.60;;;;;;;22.37;45.82;95042.38;5054337;28;20482;-82
2023/09/14 07:48:19;;;;;;;9.93;4.53;;;;;;;22.53;45.99;95034.13;5037856;28;20067;-82
2023/09/14 07:50:44;;;;;;;12.25;4.78;;;;;;;23.07;44.07;95038.69;5072192;28;20079;-83
2023/09/14 07:53:10;;;;;;;9.80;4.43;;;;;;;23.15;44.00;95035.84;5071097;28;20078;-82
2023/09/14 07:55:36;;;;;;;11.00;4.28;;;;;;;22.87;43.50;95024.50;5054174;28;20025;-83
2023/09/14 07:58:02;;;;;;;6.47;3.70;;;;;;;23.22;42.02;95029.75;5054492;28;20093;-82
2023/09/14 08:00:28;;;;;;;9.30;4.30;;;;;;;23.16;42.57;95029.53;5053829;28;20472;-83
2023/09/14 08:02:53;;;;;;;8.70;4.03;;;;;;;23.03;42.56;95013.59;5037770;28;20062;-83
2023/09/14 08:05:20;;;;;;;8.48;4.45;;;;;;;23.22;42.31;95029.75;5037503;28;20044;-83
2023/09/14 08:07:45;;;;;;;10.40;4.00;;;;;;;23.19;41.64;95031.78;5037257;28;20037;-83
2023/09/14 08:10:11;;;;;;;7.70;4.20;;;;;;;23.80;40.94;95046.00;5053941;28;20029;-83
2023/09/14 08:12:37;;;;;;;10.40;4.55;;;;;;;23.93;41.51;95037.19;5037475;28;20055;-83
2023/09/14 08:15:06;;;;;;;9.32;4.40;;;;;;;24.01;41.02;95031.69;5053837;28;20116;-82
2023/09/14 08:17:32;;;;;;;9.93;4.25;;;;;;;24.16;40.12;95034.16;5053967;28;20068;-82
2023/09/14 08:19:57;;;;;;;7.85;4.25;;;;;;;23.99;40.42;95026.59;5053692;28;20341;-81
2023/09/14 08:22:23;;;;;;;10.75;4.57;;;;;;;23.98;40.74;95022.31;5053760;28;20421;-83
2023/09/14 08:24:52;;;;;;;7.18;4.20;;;;;;;24.43;40.14;95019.84;5037206;28;20043;-83
2023/09/14 08:27:17;;;;;;;8.35;3.90;;;;;;;24.70;38.40;95017.91;5037605;28;20067;-83
2023/09/14 08:29:43;;;;;;;12.35;4.15;;;;;;;24.65;38.23;95008.94;5053569;28;20025;-83
2023/09/14 08:32:12;;;;;;;6.65;3.97;;;;;;;24.35;38.42;95005.91;5054175;28;20538;-82
2023/09/14 08:34:38;;;;;;;8.27;4.20;;;;;;;24.52;38.11;95015.13;5070118;28;20471;-82
2023/09/14 08:37:04;;;;;;;12.85;4.18;;;;;;;24.56;37.41;95007.53;5070504;28;20025;-83
2023/09/14 08:39:29;;;;;;;11.95;3.90;;;;;;;24.48;38.08;95006.72;5070228;28;20446;-83
2023/09/14 08:41:55;;;;;;;8.85;3.80;;;;;;;24.34;37.76;95013.06;5053498;28;20067;-83
2023/09/14 08:44:21;;;;;;;9.57;3.72;;;;;;;24.75;37.30;95007.47;5070076;28;20542;-82
2023/09/14 08:46:47;;;;;;;7.97;3.72;;;;;;;24.56;37.64;95010.19;5053051;28;20474;-82
2023/09/14 08:49:13;;;;;;;8.57;3.67;;;;;;;24.88;36.57;94995.19;5036012;28;20063;-82
2023/09/14 08:51:39;;;;;;;7.40;3.63;;;;;;;24.96;35.84;94995.75;5053470;28;20029;-83
2023/09/14 08:54:04;;;;;;;11.85;8.32;;;;;;;24.83;37.19;94995.81;5069804;28;20064;-83
2023/09/14 08:56:30;;;;;;;8.43;3.60;;;;;;;25.33;35.07;94992.50;5053273;28;20392;-83
2023/09/14 08:58:56;;;;;;;7.60;3.50;;;;;;;25.29;35.22;94986.78;5036454;28;20028;-81
2023/09/14 09:01:21;;;;;;;10.02;3.80;;;;;;;25.41;35.50;94979.78;5053051;28;20043;-83
2023/09/14 09:03:47;;;;;;;9.35;3.42;;;;;;;25.21;36.15;94986.22;5069644;28;20032;-83
2023/09/14 09:06:12;;;;;;;10.27;4.70;;;;;;;25.21;36.85;94978.25;5052994;28;20051;-83
2023/09/14 09:08:38;;;;;;;9.95;4.15;;;;;;;25.15;36.44;94971.94;5053011;28;20059;-82
2023/09/14 09:11:04;;;;;;;12.88;5.18;;;;;;;25.22;36.74;94969.28;5052848;28;20035;-83
2023/09/14 09:13:40;;;;;;;10.65;7.32;;;;;;;25.25;36.76;94974.16;5036416;28;20063;-83
2023/09/14 09:16:06;;;;;;;14.73;4.60;;;;;;;25.25;36.39;94945.72;5069542;28;20452;-82
2023/09/14 09:18:35;;;;;;;8.30;4.18;;;;;;;25.55;36.10;94966.38;5036209;28;20036;-83
2023/09/14 09:21:05;;;;;;;11.73;5.03;;;;;;;25.69;36.04;94961.78;5069381;28;20037;-83
2023/09/14 09:23:32;;;;;;;9.35;3.83;;;;;;;25.87;35.03;94956.53;5037568;28;20039;-83
2023/09/14 09:25:57;;;;;;;9.80;3.92;;;;;;;26.01;35.16;94951.88;5052828;28;20397;-83
2023/09/14 09:28:32;;;;;;;7.90;3.97;;;;;;;26.14;34.08;94946.44;5053146;28;20032;-83
2023/09/14 09:30:57;;;;;;;11.38;4.57;;;;;;;25.94;35.19;94927.22;5053020;28;20021;-83
2023/09/14 09:33:36;;;;;;;13.60;5.57;;;;;;;26.05;34.75;94934.47;5069409;28;20037;-83
2023/09/14 09:36:14;;;;;;;10.98;5.32;;;;;;;25.95;35.16;94934.16;5036310;28;20486;-83
2023/09/14 09:38:40;;;;;;;10.63;6.00;;;;;;;26.04;35.49;94938.13;5037815;28;20033;-83
2023/09/14 09:41:10;;;;;;;7.95;4.93;;;;;;;26.17;34.71;94916.72;5069256;28;20032;-81
2023/09/14 09:43:36;;;;;;;12.77;5.22;;;;;;;26.38;34.67;94933.28;5053006;28;20041;-83
2023/09/14 09:46:01;;;;;;;10.95;5.75;;;;;;;26.27;35.40;94930.34;5035901;28;20101;-84
2023/09/14 09:48:31;;;;;;;16.83;5.63;;;;;;;26.56;34.91;94938.63;5052639;28;20040;-81
2023/09/14 09:50:57;;;;;;;10.23;5.40;;;;;;;26.32;34.88;94924.31;5035943;28;20057;-85
2023/09/14 09:53:22;;;;;;;14.73;6.55;;;;;;;26.57;35.05;94940.25;5052609;28;20029;-83
2023/09/14 09:55:48;;;;;;;11.57;7.95;;;;;;;26.46;35.45;94939.09;5035851;28;20051;-83
2023/09/14 09:58:16;;;;;;;19.95;14.40;;;;;;;26.52;35.14;94932.94;5052408;28;20028;-82
2023/09/14 10:00:42;;;;;;;14.40;4.53;;;;;;;26.46;34.60;94932.97;5040561;28;20028;-83
2023/09/14 10:03:08;;;;;;;11.15;5.15;;;;;;;26.40;34.66;94932.03;5056299;28;20059;-83
2023/09/14 10:05:38;;;;;;;9.30;5.28;;;;;;;26.45;34.41;94934.03;5056129;28;20028;-84
2023/09/14 10:08:04;;;;;;;8.38;4.90;;;;;;;26.64;34.90;94925.00;5056453;28;20040;-83
2023/09/14 10:10:32;;;;;;;10.65;4.82;;;;;;;26.70;33.48;94928.63;5056174;28;20033;-83
2023/09/14 10:13:00;;;;;;;10.02;4.82;;;;;;;26.77;34.89;94924.00;5056389;28;20127;-82
2023/09/14 10:15:26;;;;;;;10.02;4.90;;;;;;;26.80;34.72;94930.75;5040095;28;20024;-83
2023/09/14 10:17:56;;;;;;;13.77;5.10;;;;;;;26.61;34.28;94928.13;5056231;28;20040;-82
2023/09/14 10:20:22;;;;;;;14.27;4.70;;;;;;;26.66;34.05;94924.78;5039402;28;20025;-83
2023/09/14 10:22:48;;;;;;;13.30;5.07;;;;;;;26.81;34.56;94922.53;5039181;28;20102;-83
2023/09/14 10:25:14;;;;;;;12.40;5.07;;;;;;;26.97;33.21;94921.09;5039466;28;20028;-84
2023/09/14 10:27:40;;;;;;;18.00;5.05;;;;;;;26.92;33.79;94907.63;5039592;28;20498;-84
2023/09/14 10:30:08;;;;;;;10.43;5.20;;;;;;;27.01;33.17;94914.25;5055802;28;20045;-83
2023/09/14 10:32:37;;;;;;;12.93;4.75;;;;;;;26.95;33.37;94908.00;5072736;28;20039;-84
2023/09/14 10:35:03;;;;;;;12.93;4.85;;;;;;;26.94;33.79;94905.53;5072307;28;20032;-84
2023/09/14 10:37:28;;;;;;;9.82;4.32;;;;;;;27.16;32.39;94904.03;5055854;28;20032;-83
2023/09/14 10:39:54;;;;;;;17.88;4.90;;;;;;;27.15;31.88;94901.56;5055954;28;20033;-84
2023/09/14 10:42:19;;;;;;;9.07;4.05;;;;;;;27.16;31.66;94882.72;5055794;28;20043;-83
2023/09/14 10:44:45;;;;;;;10.85;4.72;;;;;;;27.46;31.29;94881.00;5038940;28;20489;-83
2023/09/14 10:47:10;;;;;;;10.82;4.50;;;;;;;27.31;31.25;94892.13;5055686;28;20032;-83
2023/09/14 10:49:36;;;;;;;7.72;3.88;;;;;;;27.33;29.66;94871.34;5038778;28;20404;-83
2023/09/14 10:52:02;;;;;;;10.07;4.40;;;;;;;27.57;30.89;94881.00;5055496;28;20406;-84
2023/09/14 10:54:29;;;;;;;10.45;3.85;;;;;;;27.57;29.78;94874.88;5038933;28;20029;-84
2023/09/14 10:56:56;;;;;;;11.05;4.53;;;;;;;27.65;29.64;94876.38;5055941;28;20032;-83
2023/09/14 10:59:42;;;;;;;12.57;4.63;;;;;;;27.68;29.83;94883.94;5038951;28;20029;-83
2023/09/14 11:02:07;;;;;;;9.02;4.55;;;;;;;27.60;30.00;94880.53;5071618;28;20036;-84
2023/09/14 11:04:33;;;;;;;8.00;3.63;;;;;;;27.88;29.88;94872.94;5055203;28;20388;-84
2023/09/14 11:06:59;;;;;;;9.02;4.20;;;;;;;27.79;29.33;94869.78;5053928;28;20194;-84
2023/09/14 11:09:24;;;;;;;7.93;3.58;;;;;;;27.86;28.15;94867.84;5055249;28;20060;-84
2023/09/14 11:11:50;;;;;;;8.25;3.75;;;;;;;27.76;28.89;94868.38;5070666;28;20067;-84
2023/09/14 11:14:17;;;;;;;12.45;3.72;;;;;;;28.08;27.44;94857.34;5038479;28;20028;-84
2023/09/14 11:16:49;;;;;;;7.63;3.85;;;;;;;28.20;28.00;94854.66;5038364;28;20556;-84
2023/09/14 11:19:45;;;;;;;7.95;3.83;;;;;;;28.26;28.14;94848.38;5050855;28;20068;-83
2023/09/14 11:22:14;;;;;;;6.72;3.70;;;;;;;28.24;27.21;94848.59;5050157;28;20040;-81
2023/09/14 11:24:39;;;;;;;9.13;3.87;;;;;;;28.11;28.37;94842.72;5034863;28;20029;-81
2023/09/14 11:27:05;;;;;;;9.05;4.35;;;;;;;28.21;27.99;94846.41;5041526;28;20137;-81